Terminal Aerodrome Forecast
Issued by NWS Albuquerque, NM

Home | Current Version | Previous Version | Text Only | Print | Product List | Glossary On
Versions: 1 2 3 4 5 6 7 8 9 10 11 12 13 14 15 16 17 18
000
FTUS45 KABQ 241327 AAA
TAFABQ
TAF AMD
KABQ 241327Z 2413/2512 08011KT P6SM FEW040 SCT100
      TEMPO 2413/2417 09011G21KT
     FM241800 13009KT P6SM SCT050
     FM242100 16012KT P6SM VCTS BKN050CB OVC080
     FM250100 11020G30KT P6SM VCSH OVC050
     FM250300 09014G20KT P6SM BKN100=

USA.gov is the U.S. government's official web portal to all federal, state and local government web resources and services.